SHU1987 UEEE-UIII
Flight info
| Callsign | SHU1987 |
|---|---|
| Flight time | 2h 25m |
| Altitude | 32000 |
| Route | LEPRI1 LEPRI B155 OLDEP W269 PIRUP/K0857F340 W269 GARAK W225 KA KA5B |
| Aircraft | T154/M-SDFGIRY/S |
Departure
| Time | 2026-05-04 14:17 |
|---|---|
| Airport | Platon Oyunsky Yakutsk International Airport (UEEE) |
Arrival
| Time | 2026-05-04 16:43 |
|---|---|
| Airport | Irkutsk International Airport (UIII) |
| Time | Latitude | Longitude | Altitude | Speed | Heading |
|---|---|---|---|---|---|
| 2026-05-04 13:05 | 62.08827 | 129.75503 | 337 ft | 0 kts | 302° |
| 2026-05-04 13:58 | 62.08828 | 129.75503 | 337 ft | 0 kts | 302° |
| 2026-05-04 14:03 | 62.08829 | 129.75497 | 337 ft | 0 kts | 302° |
| 2026-05-04 14:04 | 62.08839 | 129.75424 | 337 ft | 4 kts | 254° |
| 2026-05-04 14:04 | 62.08814 | 129.75369 | 337 ft | 5 kts | 214° |
| 2026-05-04 14:04 | 62.08779 | 129.75326 | 337 ft | 6 kts | 193° |
| 2026-05-04 14:05 | 62.08713 | 129.75465 | 337 ft | 8 kts | 120° |
| 2026-05-04 14:05 | 62.08684 | 129.75577 | 337 ft | 8 kts | 120° |
| 2026-05-04 14:05 | 62.08658 | 129.75673 | 337 ft | 7 kts | 122° |
| 2026-05-04 14:06 | 62.08624 | 129.75758 | 337 ft | 8 kts | 149° |
| 2026-05-04 14:06 | 62.08575 | 129.75737 | 337 ft | 8 kts | 218° |
| 2026-05-04 14:06 | 62.08528 | 129.75674 | 337 ft | 8 kts | 210° |
| 2026-05-04 14:06 | 62.08476 | 129.75609 | 337 ft | 8 kts | 211° |
| 2026-05-04 14:07 | 62.08419 | 129.75539 | 337 ft | 9 kts | 210° |
| 2026-05-04 14:07 | 62.08355 | 129.75459 | 337 ft | 10 kts | 206° |
| 2026-05-04 14:07 | 62.08279 | 129.75436 | 337 ft | 11 kts | 160° |
| 2026-05-04 14:07 | 62.08269 | 129.75447 | 337 ft | 0 kts | 147° |
| 2026-05-04 14:08 | 62.08256 | 129.75473 | 337 ft | 4 kts | 132° |
| 2026-05-04 14:08 | 62.08231 | 129.75557 | 337 ft | 8 kts | 118° |
| 2026-05-04 14:08 | 62.08224 | 129.75703 | 337 ft | 12 kts | 59° |
| 2026-05-04 14:08 | 62.08296 | 129.75842 | 337 ft | 15 kts | 37° |
| 2026-05-04 14:09 | 62.08499 | 129.76166 | 337 ft | 20 kts | 37° |
| 2026-05-04 14:09 | 62.08621 | 129.76361 | 337 ft | 22 kts | 37° |
| 2026-05-04 14:10 | 62.08891 | 129.76787 | 337 ft | 24 kts | 36° |
| 2026-05-04 14:10 | 62.09036 | 129.77014 | 337 ft | 26 kts | 39° |
| 2026-05-04 14:10 | 62.09183 | 129.77258 | 337 ft | 27 kts | 37° |
| 2026-05-04 14:10 | 62.09328 | 129.77492 | 337 ft | 23 kts | 37° |
| 2026-05-04 14:11 | 62.09464 | 129.77708 | 337 ft | 24 kts | 37° |
| 2026-05-04 14:11 | 62.09747 | 129.78162 | 337 ft | 25 kts | 37° |
| 2026-05-04 14:11 | 62.09895 | 129.78391 | 337 ft | 26 kts | 38° |
| 2026-05-04 14:12 | 62.10036 | 129.78621 | 337 ft | 24 kts | 37° |
| 2026-05-04 14:12 | 62.10173 | 129.78842 | 337 ft | 24 kts | 36° |
| 2026-05-04 14:12 | 62.10385 | 129.79182 | 337 ft | 17 kts | 37° |
| 2026-05-04 14:13 | 62.10484 | 129.79336 | 337 ft | 14 kts | 34° |
| 2026-05-04 14:13 | 62.10574 | 129.79410 | 337 ft | 9 kts | 15° |
| 2026-05-04 14:13 | 62.10607 | 129.79480 | 337 ft | 4 kts | 118° |
| 2026-05-04 14:13 | 62.10583 | 129.79489 | 337 ft | 4 kts | 198° |
| 2026-05-04 14:14 | 62.10554 | 129.79452 | 337 ft | 4 kts | 216° |
| 2026-05-04 14:14 | 62.10535 | 129.79423 | 337 ft | 0 kts | 216° |
| 2026-05-04 14:16 | 62.10534 | 129.79423 | 337 ft | 0 kts | 216° |
| 2026-05-04 14:16 | 62.10440 | 129.79274 | 337 ft | 46 kts | 217° |
| 2026-05-04 14:17 | 62.09260 | 129.77379 | 340 ft | 156 kts | 218° |
| 2026-05-04 14:17 | 62.08345 | 129.75906 | 694 ft | 163 kts | 218° |
| 2026-05-04 14:17 | 62.06454 | 129.72833 | 1449 ft | 175 kts | 219° |
| 2026-05-04 14:18 | 62.05476 | 129.71166 | 1855 ft | 179 kts | 220° |
| 2026-05-04 14:18 | 62.03460 | 129.67650 | 2603 ft | 196 kts | 219° |
| 2026-05-04 14:19 | 62.01503 | 129.63300 | 3712 ft | 203 kts | 245° |
| 2026-05-04 14:19 | 62.01090 | 129.60304 | 4082 ft | 214 kts | 268° |
| 2026-05-04 14:19 | 62.01076 | 129.57002 | 4550 ft | 221 kts | 268° |
| 2026-05-04 14:19 | 62.00980 | 129.53786 | 5228 ft | 210 kts | 265° |
| 2026-05-04 14:20 | 62.00812 | 129.50647 | 5676 ft | 208 kts | 262° |
| 2026-05-04 14:20 | 62.00567 | 129.47549 | 6090 ft | 213 kts | 260° |
| 2026-05-04 14:20 | 62.00287 | 129.44214 | 6401 ft | 233 kts | 260° |
| 2026-05-04 14:21 | 61.99683 | 129.36891 | 7343 ft | 256 kts | 261° |
| 2026-05-04 14:21 | 61.99379 | 129.33040 | 8011 ft | 259 kts | 260° |
| 2026-05-04 14:21 | 61.99091 | 129.29190 | 8591 ft | 266 kts | 261° |
| 2026-05-04 14:21 | 61.98789 | 129.25168 | 9108 ft | 274 kts | 260° |
| 2026-05-04 14:22 | 61.98483 | 129.21046 | 9629 ft | 283 kts | 261° |
| 2026-05-04 14:22 | 61.98182 | 129.16746 | 10067 ft | 295 kts | 262° |
| 2026-05-04 14:22 | 61.97886 | 129.12228 | 10506 ft | 308 kts | 262° |
| 2026-05-04 14:22 | 61.97589 | 129.07507 | 11036 ft | 317 kts | 262° |
| 2026-05-04 14:23 | 61.96937 | 128.97858 | 12136 ft | 340 kts | 261° |
| 2026-05-04 14:23 | 61.96574 | 128.92737 | 12688 ft | 350 kts | 261° |
| 2026-05-04 14:23 | 61.96193 | 128.87518 | 13351 ft | 355 kts | 261° |
| 2026-05-04 14:24 | 61.95712 | 128.82143 | 13792 ft | 356 kts | 257° |
| 2026-05-04 14:24 | 61.95001 | 128.77013 | 14209 ft | 361 kts | 250° |
| 2026-05-04 14:24 | 61.94111 | 128.71951 | 14537 ft | 359 kts | 250° |
| 2026-05-04 14:24 | 61.93255 | 128.66750 | 14944 ft | 362 kts | 251° |
| 2026-05-04 14:25 | 61.92451 | 128.61650 | 15483 ft | 363 kts | 252° |
| 2026-05-04 14:25 | 61.90804 | 128.51048 | 16606 ft | 373 kts | 252° |
| 2026-05-04 14:25 | 61.89988 | 128.45769 | 17119 ft | 375 kts | 252° |
| 2026-05-04 14:26 | 61.89143 | 128.40395 | 17602 ft | 378 kts | 252° |
| 2026-05-04 14:26 | 61.88287 | 128.35053 | 18080 ft | 381 kts | 252° |
| 2026-05-04 14:26 | 61.87418 | 128.29651 | 18510 ft | 384 kts | 251° |
| 2026-05-04 14:26 | 61.86541 | 128.24158 | 18945 ft | 386 kts | 251° |
| 2026-05-04 14:27 | 61.85698 | 128.18695 | 19385 ft | 388 kts | 252° |
| 2026-05-04 14:27 | 61.84840 | 128.13165 | 19855 ft | 391 kts | 251° |
| 2026-05-04 14:27 | 61.83962 | 128.07567 | 20356 ft | 394 kts | 251° |
| 2026-05-04 14:27 | 61.83079 | 128.01993 | 20883 ft | 398 kts | 251° |
| 2026-05-04 14:28 | 61.82168 | 127.96272 | 21399 ft | 401 kts | 251° |
| 2026-05-04 14:28 | 61.81260 | 127.90596 | 21912 ft | 404 kts | 251° |
| 2026-05-04 14:28 | 61.80334 | 127.84828 | 22443 ft | 407 kts | 251° |
| 2026-05-04 14:28 | 61.79415 | 127.79120 | 22973 ft | 409 kts | 251° |
| 2026-05-04 14:29 | 61.77549 | 127.67593 | 23982 ft | 413 kts | 251° |
| 2026-05-04 14:29 | 61.75637 | 127.55853 | 24992 ft | 417 kts | 251° |
| 2026-05-04 14:30 | 61.74677 | 127.49985 | 25492 ft | 418 kts | 251° |
| 2026-05-04 14:30 | 61.73715 | 127.44130 | 25987 ft | 419 kts | 251° |
| 2026-05-04 14:30 | 61.71775 | 127.32367 | 26959 ft | 420 kts | 250° |
| 2026-05-04 14:31 | 61.70799 | 127.26462 | 27375 ft | 422 kts | 250° |
| 2026-05-04 14:31 | 61.68824 | 127.14587 | 28208 ft | 425 kts | 250° |
| 2026-05-04 14:32 | 61.66856 | 127.02833 | 29032 ft | 426 kts | 251° |
| 2026-05-04 14:32 | 61.65873 | 126.96854 | 29452 ft | 427 kts | 251° |
| 2026-05-04 14:32 | 61.64906 | 126.90966 | 29856 ft | 427 kts | 251° |
| 2026-05-04 14:32 | 61.63934 | 126.85065 | 30255 ft | 427 kts | 251° |
| 2026-05-04 14:33 | 61.62940 | 126.79067 | 30656 ft | 428 kts | 251° |
| 2026-05-04 14:33 | 61.61953 | 126.73133 | 31049 ft | 428 kts | 251° |
| 2026-05-04 14:33 | 61.60968 | 126.67239 | 31408 ft | 429 kts | 251° |
| 2026-05-04 14:33 | 61.59968 | 126.61268 | 31624 ft | 433 kts | 251° |
| 2026-05-04 14:34 | 61.58954 | 126.55237 | 31617 ft | 443 kts | 251° |
| 2026-05-04 14:34 | 61.56851 | 126.42794 | 31623 ft | 452 kts | 251° |
| 2026-05-04 14:35 | 61.54702 | 126.30154 | 31608 ft | 466 kts | 250° |
| 2026-05-04 14:35 | 61.52490 | 126.17211 | 31614 ft | 471 kts | 250° |
| 2026-05-04 14:36 | 61.50219 | 126.04041 | 31616 ft | 475 kts | 250° |
| 2026-05-04 14:36 | 61.47969 | 125.91085 | 31611 ft | 473 kts | 250° |
| 2026-05-04 14:37 | 61.45683 | 125.78013 | 31615 ft | 474 kts | 250° |
| 2026-05-04 14:37 | 61.43401 | 125.65060 | 31614 ft | 473 kts | 250° |
| 2026-05-04 14:38 | 61.41101 | 125.52091 | 31612 ft | 474 kts | 250° |
| 2026-05-04 14:38 | 61.38789 | 125.39141 | 31614 ft | 474 kts | 250° |
| 2026-05-04 14:39 | 61.36467 | 125.26207 | 31615 ft | 473 kts | 249° |
| 2026-05-04 14:39 | 61.34136 | 125.13306 | 31611 ft | 474 kts | 249° |
| 2026-05-04 14:40 | 61.30611 | 124.93990 | 31613 ft | 473 kts | 249° |
| 2026-05-04 14:40 | 61.28237 | 124.81089 | 31613 ft | 474 kts | 249° |
| 2026-05-04 14:41 | 61.25849 | 124.68198 | 31612 ft | 474 kts | 249° |
| 2026-05-04 14:42 | 61.21061 | 124.42610 | 31616 ft | 473 kts | 249° |
| 2026-05-04 14:42 | 61.18634 | 124.29757 | 31606 ft | 473 kts | 248° |
| 2026-05-04 14:43 | 61.16219 | 124.17030 | 31615 ft | 474 kts | 248° |
| 2026-05-04 14:43 | 61.13780 | 124.04284 | 31614 ft | 473 kts | 248° |
| 2026-05-04 14:44 | 61.11336 | 123.91596 | 31615 ft | 474 kts | 248° |
| 2026-05-04 14:44 | 61.08862 | 123.78838 | 31611 ft | 473 kts | 248° |
| 2026-05-04 14:45 | 61.06389 | 123.66159 | 31609 ft | 474 kts | 248° |
| 2026-05-04 14:45 | 61.03960 | 123.53529 | 31616 ft | 474 kts | 249° |
| 2026-05-04 14:46 | 61.01519 | 123.40900 | 31617 ft | 473 kts | 249° |
| 2026-05-04 14:46 | 60.99043 | 123.28183 | 31615 ft | 473 kts | 248° |
| 2026-05-04 14:47 | 60.96574 | 123.15578 | 31614 ft | 474 kts | 248° |
| 2026-05-04 14:47 | 60.94087 | 123.02973 | 31616 ft | 473 kts | 248° |
| 2026-05-04 14:48 | 60.91583 | 122.90372 | 31616 ft | 473 kts | 248° |
| 2026-05-04 14:48 | 60.89061 | 122.77792 | 31603 ft | 473 kts | 248° |
| 2026-05-04 14:49 | 60.86525 | 122.65331 | 31611 ft | 474 kts | 248° |
| 2026-05-04 14:49 | 60.83967 | 122.52737 | 31613 ft | 473 kts | 248° |
| 2026-05-04 14:50 | 60.81431 | 122.40295 | 31614 ft | 474 kts | 248° |
| 2026-05-04 14:50 | 60.78869 | 122.27779 | 31611 ft | 473 kts | 247° |
| 2026-05-04 14:51 | 60.76309 | 122.15343 | 31609 ft | 474 kts | 247° |
| 2026-05-04 14:51 | 60.73710 | 122.02810 | 31613 ft | 473 kts | 247° |
| 2026-05-04 14:52 | 60.71131 | 121.90453 | 31614 ft | 474 kts | 247° |
| 2026-05-04 14:52 | 60.68516 | 121.78004 | 31613 ft | 473 kts | 247° |
| 2026-05-04 14:53 | 60.65908 | 121.65658 | 31615 ft | 474 kts | 247° |
| 2026-05-04 14:53 | 60.63273 | 121.53258 | 31611 ft | 473 kts | 247° |
| 2026-05-04 14:54 | 60.60642 | 121.40952 | 31613 ft | 474 kts | 247° |
| 2026-05-04 14:54 | 60.57986 | 121.28599 | 31604 ft | 473 kts | 246° |
| 2026-05-04 14:55 | 60.55192 | 121.16456 | 31608 ft | 474 kts | 244° |
| 2026-05-04 14:55 | 60.52347 | 121.04301 | 31613 ft | 473 kts | 244° |
| 2026-05-04 14:56 | 60.49511 | 120.92174 | 31668 ft | 473 kts | 244° |
| 2026-05-04 14:56 | 60.46707 | 120.80234 | 31700 ft | 475 kts | 244° |
| 2026-05-04 14:57 | 60.43875 | 120.68238 | 31699 ft | 474 kts | 244° |
| 2026-05-04 14:57 | 60.41029 | 120.56249 | 31704 ft | 474 kts | 244° |
| 2026-05-04 14:58 | 60.38100 | 120.44308 | 31698 ft | 473 kts | 239° |
| 2026-05-04 14:58 | 60.34871 | 120.35279 | 31702 ft | 475 kts | 233° |
| 2026-05-04 14:59 | 60.30272 | 120.22780 | 31700 ft | 474 kts | 233° |
| 2026-05-04 15:00 | 60.24458 | 120.06544 | 31707 ft | 474 kts | 234° |
| 2026-05-04 15:00 | 60.20551 | 119.95647 | 31701 ft | 474 kts | 234° |
| 2026-05-04 15:01 | 60.14735 | 119.79522 | 31701 ft | 474 kts | 234° |
| 2026-05-04 15:01 | 60.10815 | 119.68719 | 31701 ft | 474 kts | 234° |
| 2026-05-04 15:02 | 60.06924 | 119.58044 | 31697 ft | 474 kts | 234° |
| 2026-05-04 15:02 | 60.02989 | 119.47300 | 31702 ft | 474 kts | 234° |
| 2026-05-04 15:03 | 59.99070 | 119.36646 | 31700 ft | 474 kts | 234° |
| 2026-05-04 15:03 | 59.95141 | 119.25993 | 31701 ft | 474 kts | 233° |
| 2026-05-04 15:04 | 59.91201 | 119.15361 | 31704 ft | 474 kts | 233° |
| 2026-05-04 15:04 | 59.87257 | 119.04829 | 31704 ft | 473 kts | 233° |
| 2026-05-04 15:05 | 59.83272 | 118.94251 | 31702 ft | 474 kts | 233° |
| 2026-05-04 15:05 | 59.79303 | 118.83717 | 31699 ft | 474 kts | 233° |
| 2026-05-04 15:06 | 59.75328 | 118.73203 | 31702 ft | 474 kts | 233° |
| 2026-05-04 15:07 | 59.69347 | 118.57471 | 31701 ft | 474 kts | 233° |
| 2026-05-04 15:07 | 59.65361 | 118.47044 | 31701 ft | 474 kts | 233° |
| 2026-05-04 15:08 | 59.61359 | 118.36620 | 31696 ft | 474 kts | 233° |
| 2026-05-04 15:08 | 59.57364 | 118.26239 | 31701 ft | 474 kts | 232° |
| 2026-05-04 15:09 | 59.53352 | 118.15866 | 31696 ft | 474 kts | 232° |
| 2026-05-04 15:09 | 59.49318 | 118.05496 | 31697 ft | 474 kts | 232° |
| 2026-05-04 15:10 | 59.43277 | 117.90055 | 31698 ft | 474 kts | 232° |
| 2026-05-04 15:11 | 59.37172 | 117.74554 | 31703 ft | 474 kts | 232° |
| 2026-05-04 15:11 | 59.33136 | 117.64363 | 31706 ft | 474 kts | 232° |
| 2026-05-04 15:12 | 59.29068 | 117.54136 | 31706 ft | 474 kts | 232° |
| 2026-05-04 15:12 | 59.25007 | 117.43971 | 31703 ft | 473 kts | 232° |
| 2026-05-04 15:13 | 59.20937 | 117.33826 | 31701 ft | 474 kts | 231° |
| 2026-05-04 15:13 | 59.16953 | 117.23908 | 31705 ft | 474 kts | 231° |
| 2026-05-04 15:14 | 59.12883 | 117.13841 | 31708 ft | 473 kts | 231° |
| 2026-05-04 15:14 | 59.10837 | 117.08798 | 31979 ft | 470 kts | 231° |
| 2026-05-04 15:14 | 59.08794 | 117.03777 | 32303 ft | 468 kts | 231° |
| 2026-05-04 15:14 | 59.06787 | 116.98853 | 32598 ft | 467 kts | 231° |
| 2026-05-04 15:15 | 59.04742 | 116.93854 | 32928 ft | 465 kts | 231° |
| 2026-05-04 15:15 | 59.02722 | 116.88930 | 33258 ft | 464 kts | 231° |
| 2026-05-04 15:15 | 59.00719 | 116.84060 | 33560 ft | 462 kts | 231° |
| 2026-05-04 15:16 | 58.96659 | 116.74215 | 33714 ft | 470 kts | 231° |
| 2026-05-04 15:16 | 58.94613 | 116.69269 | 33713 ft | 474 kts | 231° |
| 2026-05-04 15:17 | 58.88420 | 116.54376 | 33690 ft | 481 kts | 231° |
| 2026-05-04 15:17 | 58.82037 | 116.39191 | 33711 ft | 484 kts | 231° |
| 2026-05-04 15:18 | 58.77839 | 116.29198 | 33701 ft | 484 kts | 231° |
| 2026-05-04 15:19 | 58.71422 | 116.13982 | 33708 ft | 485 kts | 231° |
| 2026-05-04 15:19 | 58.64996 | 115.98851 | 33709 ft | 486 kts | 231° |
| 2026-05-04 15:20 | 58.60705 | 115.88794 | 33710 ft | 486 kts | 231° |
| 2026-05-04 15:20 | 58.56401 | 115.78749 | 33707 ft | 486 kts | 231° |
| 2026-05-04 15:21 | 58.52080 | 115.68710 | 33702 ft | 486 kts | 231° |
| 2026-05-04 15:22 | 58.45595 | 115.53725 | 33709 ft | 486 kts | 231° |
| 2026-05-04 15:22 | 58.39113 | 115.38839 | 33703 ft | 486 kts | 231° |
| 2026-05-04 15:23 | 58.34773 | 115.28911 | 33704 ft | 486 kts | 230° |
| 2026-05-04 15:23 | 58.30427 | 115.19001 | 33702 ft | 486 kts | 230° |
| 2026-05-04 15:24 | 58.21764 | 114.99414 | 33703 ft | 486 kts | 230° |
| 2026-05-04 15:25 | 58.17389 | 114.89587 | 33706 ft | 486 kts | 230° |
| 2026-05-04 15:26 | 58.10849 | 114.74961 | 33704 ft | 486 kts | 230° |
| 2026-05-04 15:26 | 58.04267 | 114.60326 | 33703 ft | 486 kts | 230° |
| 2026-05-04 15:27 | 57.97643 | 114.45691 | 33706 ft | 486 kts | 230° |
| 2026-05-04 15:28 | 57.91063 | 114.31238 | 33693 ft | 486 kts | 229° |
| 2026-05-04 15:29 | 57.84596 | 114.16767 | 33718 ft | 486 kts | 232° |
| 2026-05-04 15:30 | 57.70181 | 113.81368 | 33701 ft | 488 kts | 232° |
| 2026-05-04 15:31 | 57.63907 | 113.66270 | 33710 ft | 488 kts | 232° |
| 2026-05-04 15:32 | 57.53481 | 113.41373 | 33706 ft | 487 kts | 232° |
| 2026-05-04 15:34 | 57.43021 | 113.16598 | 33710 ft | 487 kts | 231° |
| 2026-05-04 15:34 | 57.36724 | 113.01828 | 33741 ft | 487 kts | 231° |
| 2026-05-04 15:35 | 57.30388 | 112.87060 | 33731 ft | 487 kts | 231° |
| 2026-05-04 15:36 | 57.24070 | 112.72415 | 33737 ft | 487 kts | 231° |
| 2026-05-04 15:36 | 57.19793 | 112.62546 | 33730 ft | 488 kts | 231° |
| 2026-05-04 15:37 | 57.15546 | 112.52787 | 33738 ft | 488 kts | 231° |
| 2026-05-04 15:37 | 57.11303 | 112.43076 | 33733 ft | 488 kts | 231° |
| 2026-05-04 15:38 | 57.07018 | 112.33307 | 33724 ft | 488 kts | 231° |
| 2026-05-04 15:38 | 57.02747 | 112.23583 | 33730 ft | 488 kts | 231° |
| 2026-05-04 15:39 | 56.98471 | 112.13903 | 33733 ft | 488 kts | 231° |
| 2026-05-04 15:40 | 56.92006 | 111.99359 | 33733 ft | 488 kts | 231° |
| 2026-05-04 15:40 | 56.87687 | 111.89722 | 33726 ft | 488 kts | 230° |
| 2026-05-04 15:41 | 56.83343 | 111.80095 | 33730 ft | 489 kts | 231° |
| 2026-05-04 15:41 | 56.79031 | 111.70534 | 33732 ft | 489 kts | 231° |
| 2026-05-04 15:42 | 56.74684 | 111.60949 | 33737 ft | 488 kts | 230° |
| 2026-05-04 15:42 | 56.70270 | 111.51547 | 33730 ft | 488 kts | 230° |
| 2026-05-04 15:43 | 56.65836 | 111.42139 | 33732 ft | 488 kts | 230° |
| 2026-05-04 15:43 | 56.61422 | 111.32785 | 33721 ft | 489 kts | 229° |
| 2026-05-04 15:44 | 56.57027 | 111.23474 | 33732 ft | 488 kts | 229° |
| 2026-05-04 15:44 | 56.52561 | 111.14071 | 33733 ft | 488 kts | 229° |
| 2026-05-04 15:45 | 56.48110 | 111.04744 | 33727 ft | 489 kts | 229° |
| 2026-05-04 15:45 | 56.43658 | 110.95454 | 33731 ft | 489 kts | 229° |
| 2026-05-04 15:46 | 56.39223 | 110.86234 | 33731 ft | 488 kts | 229° |
| 2026-05-04 15:46 | 56.34749 | 110.76969 | 33735 ft | 488 kts | 229° |
| 2026-05-04 15:47 | 56.30294 | 110.67780 | 33732 ft | 488 kts | 229° |
| 2026-05-04 15:47 | 56.25820 | 110.58588 | 33731 ft | 488 kts | 229° |
| 2026-05-04 15:48 | 56.21323 | 110.49382 | 33735 ft | 488 kts | 229° |
| 2026-05-04 15:48 | 56.14600 | 110.35687 | 33729 ft | 489 kts | 229° |
| 2026-05-04 15:49 | 56.10104 | 110.26548 | 33739 ft | 488 kts | 228° |
| 2026-05-04 15:49 | 56.05573 | 110.17385 | 33738 ft | 488 kts | 228° |
| 2026-05-04 15:50 | 56.01059 | 110.08304 | 33740 ft | 488 kts | 228° |
| 2026-05-04 15:50 | 55.96564 | 109.99297 | 33738 ft | 489 kts | 228° |
| 2026-05-04 15:51 | 55.91993 | 109.90175 | 33738 ft | 489 kts | 228° |
| 2026-05-04 15:51 | 55.87479 | 109.81225 | 33731 ft | 488 kts | 228° |
| 2026-05-04 15:52 | 55.83006 | 109.72412 | 33801 ft | 469 kts | 228° |
| 2026-05-04 15:52 | 55.78619 | 109.63766 | 33893 ft | 471 kts | 228° |
| 2026-05-04 15:53 | 55.74219 | 109.55124 | 33884 ft | 474 kts | 227° |
| 2026-05-04 15:53 | 55.69487 | 109.47002 | 33880 ft | 472 kts | 223° |
| 2026-05-04 15:54 | 55.64698 | 109.38970 | 33881 ft | 473 kts | 224° |
| 2026-05-04 15:54 | 55.59965 | 109.30927 | 33874 ft | 472 kts | 224° |
| 2026-05-04 15:55 | 55.55221 | 109.22849 | 33876 ft | 473 kts | 224° |
| 2026-05-04 15:55 | 55.50457 | 109.14781 | 33873 ft | 473 kts | 224° |
| 2026-05-04 15:56 | 55.45717 | 109.06789 | 33880 ft | 473 kts | 224° |
| 2026-05-04 15:56 | 55.40939 | 108.98761 | 33878 ft | 473 kts | 223° |
| 2026-05-04 15:57 | 55.36144 | 108.90733 | 33878 ft | 473 kts | 224° |
| 2026-05-04 15:57 | 55.31372 | 108.82777 | 33882 ft | 473 kts | 223° |
| 2026-05-04 15:58 | 55.26597 | 108.74844 | 33883 ft | 473 kts | 224° |
| 2026-05-04 15:58 | 55.21832 | 108.66953 | 33880 ft | 473 kts | 223° |
| 2026-05-04 15:59 | 55.17022 | 108.59016 | 33877 ft | 473 kts | 223° |
| 2026-05-04 15:59 | 55.12218 | 108.51115 | 33881 ft | 473 kts | 223° |
| 2026-05-04 16:00 | 55.07404 | 108.43227 | 33882 ft | 473 kts | 223° |
| 2026-05-04 16:00 | 55.02614 | 108.35407 | 33884 ft | 473 kts | 223° |
| 2026-05-04 16:01 | 54.97787 | 108.27525 | 33884 ft | 473 kts | 223° |
| 2026-05-04 16:01 | 54.92989 | 108.19727 | 33887 ft | 473 kts | 223° |
| 2026-05-04 16:02 | 54.88157 | 108.11925 | 33866 ft | 472 kts | 223° |
| 2026-05-04 16:03 | 54.80883 | 108.00275 | 33890 ft | 473 kts | 223° |
| 2026-05-04 16:03 | 54.76068 | 107.92564 | 33882 ft | 473 kts | 223° |
| 2026-05-04 16:04 | 54.71207 | 107.84802 | 33884 ft | 473 kts | 223° |
| 2026-05-04 16:04 | 54.63948 | 107.73257 | 33883 ft | 473 kts | 223° |
| 2026-05-04 16:05 | 54.59088 | 107.65557 | 33879 ft | 473 kts | 223° |
| 2026-05-04 16:06 | 54.51826 | 107.54095 | 33881 ft | 473 kts | 223° |
| 2026-05-04 16:07 | 54.42081 | 107.38809 | 33880 ft | 473 kts | 223° |
| 2026-05-04 16:08 | 54.32334 | 107.23583 | 33876 ft | 473 kts | 222° |
| 2026-05-04 16:09 | 54.20132 | 107.04703 | 33880 ft | 473 kts | 222° |
| 2026-05-04 16:10 | 54.10531 | 106.89968 | 33871 ft | 442 kts | 222° |
| 2026-05-04 16:11 | 54.03511 | 106.79258 | 32868 ft | 452 kts | 222° |
| 2026-05-04 16:11 | 54.01183 | 106.75717 | 32365 ft | 447 kts | 222° |
| 2026-05-04 16:12 | 53.94317 | 106.65305 | 30865 ft | 434 kts | 222° |
| 2026-05-04 16:12 | 53.87633 | 106.55235 | 29356 ft | 423 kts | 221° |
| 2026-05-04 16:13 | 53.83280 | 106.48725 | 28502 ft | 412 kts | 222° |
| 2026-05-04 16:13 | 53.79017 | 106.42343 | 27546 ft | 405 kts | 222° |
| 2026-05-04 16:14 | 53.74828 | 106.36079 | 26612 ft | 397 kts | 222° |
| 2026-05-04 16:14 | 53.71152 | 106.30576 | 25701 ft | 393 kts | 221° |
| 2026-05-04 16:15 | 53.64884 | 106.21233 | 24138 ft | 384 kts | 221° |
| 2026-05-04 16:16 | 53.60887 | 106.15310 | 23157 ft | 378 kts | 221° |
| 2026-05-04 16:16 | 53.55003 | 106.06619 | 21711 ft | 368 kts | 221° |
| 2026-05-04 16:17 | 53.51172 | 106.00978 | 20771 ft | 362 kts | 221° |
| 2026-05-04 16:18 | 53.45538 | 105.92709 | 19368 ft | 354 kts | 221° |
| 2026-05-04 16:18 | 53.43673 | 105.89980 | 18894 ft | 351 kts | 221° |
| 2026-05-04 16:19 | 53.38197 | 105.81980 | 17650 ft | 345 kts | 221° |
| 2026-05-04 16:19 | 53.34584 | 105.76720 | 16859 ft | 340 kts | 221° |
| 2026-05-04 16:20 | 53.29236 | 105.68954 | 15708 ft | 334 kts | 221° |
| 2026-05-04 16:20 | 53.25748 | 105.63902 | 14968 ft | 330 kts | 221° |
| 2026-05-04 16:21 | 53.20552 | 105.56401 | 13862 ft | 325 kts | 221° |
| 2026-05-04 16:22 | 53.17142 | 105.51492 | 13103 ft | 321 kts | 221° |
| 2026-05-04 16:22 | 53.12089 | 105.44236 | 11893 ft | 316 kts | 221° |
| 2026-05-04 16:23 | 53.07118 | 105.37120 | 10560 ft | 309 kts | 221° |
| 2026-05-04 16:24 | 53.00894 | 105.28207 | 9983 ft | 273 kts | 220° |
| 2026-05-04 16:25 | 52.97971 | 105.24046 | 9992 ft | 276 kts | 220° |
| 2026-05-04 16:26 | 52.91237 | 105.18048 | 9991 ft | 276 kts | 197° |
| 2026-05-04 16:26 | 52.85761 | 105.14942 | 9993 ft | 277 kts | 199° |
| 2026-05-04 16:27 | 52.82106 | 105.12889 | 9993 ft | 277 kts | 198° |
| 2026-05-04 16:28 | 52.76564 | 105.09890 | 9997 ft | 277 kts | 198° |
| 2026-05-04 16:28 | 52.71011 | 105.07021 | 9995 ft | 277 kts | 197° |
| 2026-05-04 16:29 | 52.63757 | 105.02823 | 9412 ft | 274 kts | 197° |
| 2026-05-04 16:30 | 52.58125 | 105.02003 | 8845 ft | 271 kts | 166° |
| 2026-05-04 16:31 | 52.54882 | 105.05169 | 8442 ft | 269 kts | 147° |
| 2026-05-04 16:31 | 52.49529 | 105.05969 | 7630 ft | 265 kts | 200° |
| 2026-05-04 16:32 | 52.44790 | 105.01668 | 6430 ft | 250 kts | 212° |
| 2026-05-04 16:33 | 52.42011 | 104.98616 | 5850 ft | 227 kts | 215° |
| 2026-05-04 16:33 | 52.39404 | 104.95543 | 5469 ft | 227 kts | 215° |
| 2026-05-04 16:34 | 52.36720 | 104.92815 | 5106 ft | 226 kts | 216° |
| 2026-05-04 16:34 | 52.35478 | 104.91185 | 4934 ft | 226 kts | 219° |
| 2026-05-04 16:35 | 52.31942 | 104.86114 | 4395 ft | 224 kts | 223° |
| 2026-05-04 16:35 | 52.28237 | 104.81444 | 4301 ft | 222 kts | 207° |
| 2026-05-04 16:36 | 52.26837 | 104.80317 | 4305 ft | 225 kts | 207° |
| 2026-05-04 16:36 | 52.24103 | 104.78328 | 4213 ft | 205 kts | 203° |
| 2026-05-04 16:37 | 52.21455 | 104.76550 | 3665 ft | 200 kts | 204° |
| 2026-05-04 16:37 | 52.20176 | 104.75725 | 3438 ft | 192 kts | 204° |
| 2026-05-04 16:37 | 52.18554 | 104.72601 | 3559 ft | 190 kts | 270° |
| 2026-05-04 16:38 | 52.18915 | 104.68295 | 3539 ft | 190 kts | 290° |
| 2026-05-04 16:39 | 52.20587 | 104.62518 | 3528 ft | 162 kts | 295° |
| 2026-05-04 16:39 | 52.21419 | 104.59171 | 3516 ft | 159 kts | 292° |
| 2026-05-04 16:40 | 52.22337 | 104.55824 | 3455 ft | 162 kts | 299° |
| 2026-05-04 16:40 | 52.23202 | 104.52516 | 3253 ft | 159 kts | 294° |
| 2026-05-04 16:41 | 52.24080 | 104.49280 | 2741 ft | 141 kts | 295° |
| 2026-05-04 16:41 | 52.25224 | 104.45064 | 2042 ft | 137 kts | 297° |
| 2026-05-04 16:42 | 52.26379 | 104.40730 | 1686 ft | 139 kts | 294° |
| 2026-05-04 16:43 | 52.26954 | 104.38572 | 1684 ft | 66 kts | 294° |
| 2026-05-04 16:43 | 52.27040 | 104.38097 | 1683 ft | 6 kts | 197° |
| 2026-05-04 16:43 | 52.26989 | 104.38069 | 1683 ft | 9 kts | 201° |
| 2026-05-04 16:44 | 52.26925 | 104.38026 | 1683 ft | 0 kts | 206° |
| 2026-05-04 16:45 | 52.26920 | 104.38022 | 1683 ft | 0 kts | 206° |
| 2026-05-04 16:46 | 52.26911 | 104.38015 | 1683 ft | 0 kts | 206° |
| 2026-05-04 16:46 | 52.26905 | 104.38010 | 1683 ft | 0 kts | 206° |
| 2026-05-04 16:47 | 52.26899 | 104.38006 | 1683 ft | 0 kts | 206° |
| 2026-05-04 16:47 | 52.26895 | 104.38002 | 1683 ft | 0 kts | 206° |
| 2026-05-04 16:48 | 52.26862 | 104.37978 | 1683 ft | 3 kts | 205° |
| 2026-05-04 16:48 | 52.26836 | 104.37957 | 1683 ft | 4 kts | 211° |
| 2026-05-04 16:49 | 52.26781 | 104.37858 | 1683 ft | 7 kts | 232° |
| 2026-05-04 16:49 | 52.26750 | 104.37744 | 1683 ft | 5 kts | 278° |
| 2026-05-04 16:50 | 52.26780 | 104.37611 | 1683 ft | 6 kts | 294° |
| 2026-05-04 16:50 | 52.26823 | 104.37453 | 1683 ft | 8 kts | 295° |
| 2026-05-04 16:51 | 52.26873 | 104.37270 | 1683 ft | 9 kts | 295° |
| 2026-05-04 16:51 | 52.26900 | 104.37170 | 1683 ft | 10 kts | 294° |
| 2026-05-04 16:51 | 52.26955 | 104.36941 | 1683 ft | 11 kts | 291° |
| 2026-05-04 16:52 | 52.27008 | 104.36702 | 1683 ft | 11 kts | 291° |
| 2026-05-04 16:52 | 52.27033 | 104.36594 | 1683 ft | 8 kts | 291° |
| 2026-05-04 16:53 | 52.27062 | 104.36462 | 1683 ft | 4 kts | 288° |
| 2026-05-04 16:53 | 52.27077 | 104.36387 | 1683 ft | 0 kts | 289° |
| 2026-05-04 16:55 | 52.27094 | 104.36250 | 1683 ft | 6 kts | 268° |
| 2026-05-04 16:55 | 52.27090 | 104.36063 | 1683 ft | 9 kts | 267° |
| 2026-05-04 16:56 | 52.27087 | 104.35964 | 1683 ft | 2 kts | 278° |
| 2026-05-04 16:56 | 52.27121 | 104.35925 | 1683 ft | 1 kts | 344° |
| 2026-05-04 16:57 | 52.27126 | 104.35923 | 1683 ft | 0 kts | 353° |